sensor_id;sensor_type;location;lat;lon;timestamp;noise_LAeq;noise_LA_min;noise_LA_max;noise_LA01;noise_LA95
69670;Laerm;66535;52.370;4.832;2023-04-03T00:00:23;44.74;38.62;52.99;;
69670;Laerm;66535;52.370;4.832;2023-04-03T00:00:55;39.73;36.14;45.27;;
69670;Laerm;66535;52.370;4.832;2023-04-03T00:01:27;40.25;35.96;48.74;;
69670;Laerm;66535;52.370;4.832;2023-04-03T00:01:59;51.78;35.75;67.20;;
69670;Laerm;66535;52.370;4.832;2023-04-03T00:02:30;59.87;36.19;74.30;;
69670;Laerm;66535;52.370;4.832;2023-04-03T00:03:02;61.54;39.02;73.92;;
69670;Laerm;66535;52.370;4.832;2023-04-03T00:03:33;41.48;38.19;49.60;;
69670;Laerm;66535;52.370;4.832;2023-04-03T00:04:05;40.68;36.99;48.44;;
69670;Laerm;66535;52.370;4.832;2023-04-03T00:04:39;44.19;36.52;51.68;;
69670;Laerm;66535;52.370;4.832;2023-04-03T00:05:10;41.57;36.08;47.44;;
69670;Laerm;66535;52.370;4.832;2023-04-03T00:05:41;41.63;36.34;49.50;;
69670;Laerm;66535;52.370;4.832;2023-04-03T00:06:14;39.76;36.39;44.34;;
69670;Laerm;66535;52.370;4.832;2023-04-03T00:06:45;39.91;36.52;46.06;;
69670;Laerm;66535;52.370;4.832;2023-04-03T00:07:16;37.90;35.76;41.12;;
69670;Laerm;66535;52.370;4.832;2023-04-03T00:07:48;40.40;35.60;46.95;;
69670;Laerm;66535;52.370;4.832;2023-04-03T00:08:20;37.96;35.22;40.75;;
69670;Laerm;66535;52.370;4.832;2023-04-03T00:08:52;39.66;35.52;47.22;;
69670;Laerm;66535;52.370;4.832;2023-04-03T00:09:24;39.29;36.10;49.42;;
69670;Laerm;66535;52.370;4.832;2023-04-03T00:09:56;45.16;38.33;58.43;;
69670;Laerm;66535;52.370;4.832;2023-04-03T00:10:27;44.76;36.02;62.89;;
69670;Laerm;66535;52.370;4.832;2023-04-03T00:10:59;44.79;35.96;60.68;;
69670;Laerm;66535;52.370;4.832;2023-04-03T00:11:31;45.42;37.78;51.91;;
69670;Laerm;66535;52.370;4.832;2023-04-03T00:12:02;39.98;37.49;45.21;;
69670;Laerm;66535;52.370;4.832;2023-04-03T00:12:34;41.42;37.76;46.50;;
69670;Laerm;66535;52.370;4.832;2023-04-03T00:13:06;43.08;38.11;47.70;;
69670;Laerm;66535;52.370;4.832;2023-04-03T00:13:38;45.66;39.65;53.84;;
69670;Laerm;66535;52.370;4.832;2023-04-03T00:14:10;41.81;37.97;51.33;;
69670;Laerm;66535;52.370;4.832;2023-04-03T00:14:42;39.38;36.66;49.67;;
69670;Laerm;66535;52.370;4.832;2023-04-03T00:15:13;37.89;34.84;43.52;;
69670;Laerm;66535;52.370;4.832;2023-04-03T00:15:45;37.13;35.01;44.44;;
69670;Laerm;66535;52.370;4.832;2023-04-03T00:16:16;41.22;36.04;55.56;;
69670;Laerm;66535;52.370;4.832;2023-04-03T00:16:48;37.56;34.87;41.72;;
69670;Laerm;66535;52.370;4.832;2023-04-03T00:17:20;40.13;36.12;47.14;;
69670;Laerm;66535;52.370;4.832;2023-04-03T00:17:51;42.26;35.79;54.40;;
69670;Laerm;66535;52.370;4.832;2023-04-03T00:18:23;37.69;34.96;43.01;;
69670;Laerm;66535;52.370;4.832;2023-04-03T00:18:55;36.80;34.56;42.10;;
69670;Laerm;66535;52.370;4.832;2023-04-03T00:19:26;41.22;36.11;44.69;;
69670;Laerm;66535;52.370;4.832;2023-04-03T00:19:59;41.38;37.86;47.66;;
69670;Laerm;66535;52.370;4.832;2023-04-03T00:20:30;41.28;37.52;49.94;;
69670;Laerm;66535;52.370;4.832;2023-04-03T00:21:03;40.66;36.68;45.62;;
69670;Laerm;66535;52.370;4.832;2023-04-03T00:21:35;37.65;35.53;39.68;;
69670;Laerm;66535;52.370;4.832;2023-04-03T00:22:06;39.70;35.92;47.31;;
69670;Laerm;66535;52.370;4.832;2023-04-03T00:22:38;38.53;35.52;50.13;;
69670;Laerm;66535;52.370;4.832;2023-04-03T00:23:09;42.45;36.16;51.79;;
69670;Laerm;66535;52.370;4.832;2023-04-03T00:23:41;39.70;35.97;44.90;;
69670;Laerm;66535;52.370;4.832;2023-04-03T00:24:13;37.96;34.68;43.75;;
69670;Laerm;66535;52.370;4.832;2023-04-03T00:24:44;38.55;34.72;43.87;;
69670;Laerm;66535;52.370;4.832;2023-04-03T00:25:16;40.35;36.20;46.74;;
69670;Laerm;66535;52.370;4.832;2023-04-03T00:25:48;41.38;34.84;58.89;;
69670;Laerm;66535;52.370;4.832;2023-04-03T00:26:19;42.67;36.15;59.83;;
69670;Laerm;66535;52.370;4.832;2023-04-03T00:26:51;42.73;37.03;49.18;;
69670;Laerm;66535;52.370;4.832;2023-04-03T00:27:23;39.36;36.30;43.02;;
69670;Laerm;66535;52.370;4.832;2023-04-03T00:27:55;38.39;35.79;41.17;;
69670;Laerm;66535;52.370;4.832;2023-04-03T00:28:26;37.88;35.54;41.32;;
69670;Laerm;66535;52.370;4.832;2023-04-03T00:28:58;39.39;36.11;49.09;;
69670;Laerm;66535;52.370;4.832;2023-04-03T00:29:29;39.77;36.42;50.13;;
69670;Laerm;66535;52.370;4.832;2023-04-03T00:30:01;43.91;38.55;57.24;;
69670;Laerm;66535;52.370;4.832;2023-04-03T00:30:33;43.64;38.41;51.98;;
69670;Laerm;66535;52.370;4.832;2023-04-03T00:31:04;40.08;36.23;45.36;;
69670;Laerm;66535;52.370;4.832;2023-04-03T00:31:36;37.69;35.75;52.20;;
69670;Laerm;66535;52.370;4.832;2023-04-03T00:32:08;38.09;35.86;42.54;;
69670;Laerm;66535;52.370;4.832;2023-04-03T00:32:39;41.22;37.19;46.55;;
69670;Laerm;66535;52.370;4.832;2023-04-03T00:33:11;39.31;36.68;41.44;;
69670;Laerm;66535;52.370;4.832;2023-04-03T00:33:43;42.43;35.98;63.60;;
69670;Laerm;66535;52.370;4.832;2023-04-03T00:34:15;42.23;36.57;50.43;;
69670;Laerm;66535;52.370;4.832;2023-04-03T00:34:46;42.25;37.24;47.26;;
69670;Laerm;66535;52.370;4.832;2023-04-03T00:35:20;44.49;37.83;51.54;;
69670;Laerm;66535;52.370;4.832;2023-04-03T00:35:52;38.47;36.36;44.85;;
69670;Laerm;66535;52.370;4.832;2023-04-03T00:36:23;37.79;35.70;46.80;;
69670;Laerm;66535;52.370;4.832;2023-04-03T00:36:56;38.06;35.62;46.08;;
69670;Laerm;66535;52.370;4.832;2023-04-03T00:37:28;39.59;36.64;44.78;;
69670;Laerm;66535;52.370;4.832;2023-04-03T00:37:59;38.77;36.37;44.33;;
69670;Laerm;66535;52.370;4.832;2023-04-03T00:38:31;41.33;36.22;50.02;;
69670;Laerm;66535;52.370;4.832;2023-04-03T00:39:03;41.23;37.86;48.00;;
69670;Laerm;66535;52.370;4.832;2023-04-03T00:39:34;39.60;35.83;43.51;;
69670;Laerm;66535;52.370;4.832;2023-04-03T00:40:07;37.19;35.20;39.20;;
69670;Laerm;66535;52.370;4.832;2023-04-03T00:40:42;36.81;34.75;39.31;;
69670;Laerm;66535;52.370;4.832;2023-04-03T00:41:14;37.71;35.51;45.41;;
69670;Laerm;66535;52.370;4.832;2023-04-03T00:41:46;42.70;35.24;52.40;;
69670;Laerm;66535;52.370;4.832;2023-04-03T00:42:17;44.12;35.41;57.72;;
69670;Laerm;66535;52.370;4.832;2023-04-03T00:42:52;42.19;35.73;55.59;;
69670;Laerm;66535;52.370;4.832;2023-04-03T00:43:25;44.62;35.38;60.74;;
69670;Laerm;66535;52.370;4.832;2023-04-03T00:43:57;39.09;35.88;43.48;;
69670;Laerm;66535;52.370;4.832;2023-04-03T00:45:39;38.52;35.74;47.41;;
69670;Laerm;66535;52.370;4.832;2023-04-03T00:46:11;39.81;36.48;46.43;;
69670;Laerm;66535;52.370;4.832;2023-04-03T00:46:43;42.51;38.01;50.11;;
69670;Laerm;66535;52.370;4.832;2023-04-03T00:47:16;39.08;36.50;46.92;;
69670;Laerm;66535;52.370;4.832;2023-04-03T00:47:48;41.98;37.96;48.23;;
69670;Laerm;66535;52.370;4.832;2023-04-03T00:48:20;42.29;38.72;47.65;;
69670;Laerm;66535;52.370;4.832;2023-04-03T00:48:54;43.14;38.32;55.33;;
69670;Laerm;66535;52.370;4.832;2023-04-03T00:49:25;51.90;40.62;61.02;;
69670;Laerm;66535;52.370;4.832;2023-04-03T00:49:57;42.13;36.29;54.15;;
69670;Laerm;66535;52.370;4.832;2023-04-03T00:50:30;40.28;36.32;46.51;;
69670;Laerm;66535;52.370;4.832;2023-04-03T00:51:02;39.15;36.13;43.19;;
69670;Laerm;66535;52.370;4.832;2023-04-03T00:51:34;38.74;36.48;45.05;;
69670;Laerm;66535;52.370;4.832;2023-04-03T00:52:08;42.86;37.78;51.14;;
69670;Laerm;66535;52.370;4.832;2023-04-03T00:52:41;41.41;36.12;52.67;;
69670;Laerm;66535;52.370;4.832;2023-04-03T00:53:14;39.27;36.64;47.85;;
69670;Laerm;66535;52.370;4.832;2023-04-03T00:53:50;38.23;36.32;47.30;;
69670;Laerm;66535;52.370;4.832;2023-04-03T00:54:22;44.39;36.49;52.94;;
69670;Laerm;66535;52.370;4.832;2023-04-03T00:54:56;46.82;36.47;54.53;;
69670;Laerm;66535;52.370;4.832;2023-04-03T00:55:29;38.68;35.10;47.61;;
69670;Laerm;66535;52.370;4.832;2023-04-03T00:56:00;36.87;34.88;48.89;;
69670;Laerm;66535;52.370;4.832;2023-04-03T00:56:33;36.73;34.48;39.73;;
69670;Laerm;66535;52.370;4.832;2023-04-03T00:57:06;37.17;34.52;40.44;;
69670;Laerm;66535;52.370;4.832;2023-04-03T00:57:38;38.55;35.65;42.20;;
69670;Laerm;66535;52.370;4.832;2023-04-03T00:58:10;42.37;37.12;52.18;;
69670;Laerm;66535;52.370;4.832;2023-04-03T00:58:45;39.83;37.00;43.89;;
69670;Laerm;66535;52.370;4.832;2023-04-03T00:59:21;41.25;36.79;45.62;;
69670;Laerm;66535;52.370;4.832;2023-04-03T00:59:59;46.62;37.86;56.97;;
69670;Laerm;66535;52.370;4.832;2023-04-03T01:00:34;40.47;37.44;44.57;;
69670;Laerm;66535;52.370;4.832;2023-04-03T01:01:09;42.12;37.79;48.24;;
69670;Laerm;66535;52.370;4.832;2023-04-03T01:01:44;37.88;35.26;41.15;;
69670;Laerm;66535;52.370;4.832;2023-04-03T01:02:15;36.76;34.67;40.34;;
69670;Laerm;66535;52.370;4.832;2023-04-03T01:02:46;37.19;35.13;40.91;;
69670;Laerm;66535;52.370;4.832;2023-04-03T01:03:19;40.35;35.83;45.99;;
69670;Laerm;66535;52.370;4.832;2023-04-03T01:03:51;37.77;35.58;40.63;;
69670;Laerm;66535;52.370;4.832;2023-04-03T01:04:27;42.18;35.17;60.07;;
69670;Laerm;66535;52.370;4.832;2023-04-03T01:05:00;39.88;35.81;51.69;;
69670;Laerm;66535;52.370;4.832;2023-04-03T01:05:33;42.52;36.25;47.83;;
69670;Laerm;66535;52.370;4.832;2023-04-03T01:06:04;40.83;36.89;49.70;;
69670;Laerm;66535;52.370;4.832;2023-04-03T01:06:37;38.79;35.57;51.85;;
69670;Laerm;66535;52.370;4.832;2023-04-03T01:07:12;41.37;36.54;51.17;;
69670;Laerm;66535;52.370;4.832;2023-04-03T01:07:46;39.73;36.51;44.04;;
69670;Laerm;66535;52.370;4.832;2023-04-03T01:08:17;39.51;37.43;44.03;;
69670;Laerm;66535;52.370;4.832;2023-04-03T01:08:49;42.18;38.01;49.93;;
69670;Laerm;66535;52.370;4.832;2023-04-03T01:09:21;39.71;37.98;48.14;;
69670;Laerm;66535;52.370;4.832;2023-04-03T01:09:56;42.22;38.53;47.81;;
69670;Laerm;66535;52.370;4.832;2023-04-03T01:10:28;44.79;38.11;53.38;;
69670;Laerm;66535;52.370;4.832;2023-04-03T01:11:00;38.50;36.61;40.65;;
69670;Laerm;66535;52.370;4.832;2023-04-03T01:11:31;39.36;36.19;44.72;;
69670;Laerm;66535;52.370;4.832;2023-04-03T01:12:13;41.53;36.97;47.50;;
69670;Laerm;66535;52.370;4.832;2023-04-03T01:12:48;41.60;38.51;47.06;;
69670;Laerm;66535;52.370;4.832;2023-04-03T01:13:24;40.78;38.72;49.84;;
69670;Laerm;66535;52.370;4.832;2023-04-03T01:13:56;39.36;36.25;52.60;;
69670;Laerm;66535;52.370;4.832;2023-04-03T01:14:28;40.65;38.38;42.97;;
69670;Laerm;66535;52.370;4.832;2023-04-03T01:15:00;42.85;40.70;46.13;;
69670;Laerm;66535;52.370;4.832;2023-04-03T01:15:33;43.52;42.20;45.10;;
69670;Laerm;66535;52.370;4.832;2023-04-03T01:16:06;45.47;43.51;50.19;;
69670;Laerm;66535;52.370;4.832;2023-04-03T01:16:38;46.17;44.56;48.61;;
69670;Laerm;66535;52.370;4.832;2023-04-03T01:17:31;47.44;36.92;66.65;;
69670;Laerm;66535;52.370;4.832;2023-04-03T01:18:02;41.14;36.32;49.05;;
69670;Laerm;66535;52.370;4.832;2023-04-03T01:18:37;44.12;39.50;52.30;;
69670;Laerm;66535;52.370;4.832;2023-04-03T01:19:12;47.16;40.49;58.19;;
69670;Laerm;66535;52.370;4.832;2023-04-03T01:19:46;54.33;20.18;62.87;;
69670;Laerm;66535;52.370;4.832;2023-04-03T01:21:52;42.42;37.19;48.17;;
69670;Laerm;66535;52.370;4.832;2023-04-03T01:22:26;44.05;36.91;54.13;;
69670;Laerm;66535;52.370;4.832;2023-04-03T01:23:06;37.53;35.38;39.49;;
69670;Laerm;66535;52.370;4.832;2023-04-03T01:23:49;40.74;35.61;50.72;;
69670;Laerm;66535;52.370;4.832;2023-04-03T01:24:30;37.95;35.13;41.48;;
69670;Laerm;66535;52.370;4.832;2023-04-03T01:25:04;41.63;36.91;50.27;;
69670;Laerm;66535;52.370;4.832;2023-04-03T01:25:37;37.93;36.39;40.24;;
69670;Laerm;66535;52.370;4.832;2023-04-03T01:26:09;41.51;36.87;48.49;;
69670;Laerm;66535;52.370;4.832;2023-04-03T01:26:42;42.84;39.13;47.64;;
69670;Laerm;66535;52.370;4.832;2023-04-03T01:27:15;40.48;36.08;46.58;;
69670;Laerm;66535;52.370;4.832;2023-04-03T01:27:46;40.99;36.20;48.38;;
69670;Laerm;66535;52.370;4.832;2023-04-03T01:28:19;37.59;35.79;39.33;;
69670;Laerm;66535;52.370;4.832;2023-04-03T01:28:53;44.02;36.84;51.98;;
69670;Laerm;66535;52.370;4.832;2023-04-03T01:29:24;36.85;34.97;40.48;;
69670;Laerm;66535;52.370;4.832;2023-04-03T01:29:55;39.36;35.55;50.51;;
69670;Laerm;66535;52.370;4.832;2023-04-03T01:30:32;37.41;35.30;42.37;;
69670;Laerm;66535;52.370;4.832;2023-04-03T01:31:09;39.12;35.71;44.31;;
69670;Laerm;66535;52.370;4.832;2023-04-03T01:31:58;42.72;35.59;55.26;;
69670;Laerm;66535;52.370;4.832;2023-04-03T01:32:30;37.89;35.95;41.47;;
69670;Laerm;66535;52.370;4.832;2023-04-03T01:33:02;37.97;36.13;39.54;;
69670;Laerm;66535;52.370;4.832;2023-04-03T01:33:33;38.25;35.72;47.63;;
69670;Laerm;66535;52.370;4.832;2023-04-03T01:34:04;38.17;35.51;41.72;;
69670;Laerm;66535;52.370;4.832;2023-04-03T01:34:36;37.60;35.15;45.86;;
69670;Laerm;66535;52.370;4.832;2023-04-03T01:35:09;39.00;35.59;43.45;;
69670;Laerm;66535;52.370;4.832;2023-04-03T01:35:40;37.08;35.49;39.79;;
69670;Laerm;66535;52.370;4.832;2023-04-03T01:36:14;37.46;35.81;39.39;;
69670;Laerm;66535;52.370;4.832;2023-04-03T01:36:46;37.72;35.87;39.83;;
69670;Laerm;66535;52.370;4.832;2023-04-03T01:37:18;44.84;37.71;50.73;;
69670;Laerm;66535;52.370;4.832;2023-04-03T01:37:49;41.51;35.06;50.81;;
69670;Laerm;66535;52.370;4.832;2023-04-03T01:38:21;36.46;34.60;38.87;;
69670;Laerm;66535;52.370;4.832;2023-04-03T01:38:52;36.94;35.14;39.03;;
69670;Laerm;66535;52.370;4.832;2023-04-03T01:39:25;37.79;35.67;47.11;;
69670;Laerm;66535;52.370;4.832;2023-04-03T01:39:56;40.01;35.81;55.02;;
69670;Laerm;66535;52.370;4.832;2023-04-03T01:40:27;37.95;35.43;49.36;;
69670;Laerm;66535;52.370;4.832;2023-04-03T01:41:00;37.36;35.30;42.21;;
69670;Laerm;66535;52.370;4.832;2023-04-03T01:41:31;37.93;35.32;42.58;;
69670;Laerm;66535;52.370;4.832;2023-04-03T01:42:03;38.05;36.05;42.58;;
69670;Laerm;66535;52.370;4.832;2023-04-03T01:42:36;38.42;35.34;45.11;;
69670;Laerm;66535;52.370;4.832;2023-04-03T01:43:07;36.72;34.97;38.39;;
69670;Laerm;66535;52.370;4.832;2023-04-03T01:43:38;36.70;34.86;43.93;;
69670;Laerm;66535;52.370;4.832;2023-04-03T01:44:11;37.29;35.13;42.80;;
69670;Laerm;66535;52.370;4.832;2023-04-03T01:44:42;41.47;35.97;48.09;;
69670;Laerm;66535;52.370;4.832;2023-04-03T01:45:13;41.09;35.96;49.26;;
69670;Laerm;66535;52.370;4.832;2023-04-03T01:45:45;41.66;36.53;50.48;;
69670;Laerm;66535;52.370;4.832;2023-04-03T01:46:20;37.25;35.23;40.44;;
69670;Laerm;66535;52.370;4.832;2023-04-03T01:46:53;39.02;35.92;45.52;;
69670;Laerm;66535;52.370;4.832;2023-04-03T01:47:24;40.00;35.36;45.24;;
69670;Laerm;66535;52.370;4.832;2023-04-03T01:47:56;40.90;36.39;45.20;;
69670;Laerm;66535;52.370;4.832;2023-04-03T01:48:28;42.94;36.68;50.52;;
69670;Laerm;66535;52.370;4.832;2023-04-03T01:48:59;42.09;37.07;49.57;;
69670;Laerm;66535;52.370;4.832;2023-04-03T01:49:31;37.16;35.04;39.36;;
69670;Laerm;66535;52.370;4.832;2023-04-03T01:50:03;41.70;36.22;50.37;;
69670;Laerm;66535;52.370;4.832;2023-04-03T01:50:35;38.61;35.30;45.65;;
69670;Laerm;66535;52.370;4.832;2023-04-03T01:51:06;37.99;35.40;44.02;;
69670;Laerm;66535;52.370;4.832;2023-04-03T01:51:38;43.72;35.90;50.00;;
69670;Laerm;66535;52.370;4.832;2023-04-03T01:52:10;39.75;37.13;44.78;;
69670;Laerm;66535;52.370;4.832;2023-04-03T01:52:41;38.90;36.14;42.59;;
69670;Laerm;66535;52.370;4.832;2023-04-03T01:53:13;38.12;35.86;41.29;;
69670;Laerm;66535;52.370;4.832;2023-04-03T01:53:45;40.07;36.47;48.69;;
69670;Laerm;66535;52.370;4.832;2023-04-03T01:54:16;43.24;37.50;48.93;;
69670;Laerm;66535;52.370;4.832;2023-04-03T01:54:48;42.57;37.58;49.36;;
69670;Laerm;66535;52.370;4.832;2023-04-03T01:55:21;41.12;36.14;48.44;;
69670;Laerm;66535;52.370;4.832;2023-04-03T01:55:52;39.64;35.82;43.69;;
69670;Laerm;66535;52.370;4.832;2023-04-03T01:56:23;38.60;35.22;43.26;;
69670;Laerm;66535;52.370;4.832;2023-04-03T01:56:55;38.13;34.38;48.36;;
69670;Laerm;66535;52.370;4.832;2023-04-03T01:57:28;39.58;34.87;45.67;;
69670;Laerm;66535;52.370;4.832;2023-04-03T01:57:59;38.66;34.67;51.97;;
69670;Laerm;66535;52.370;4.832;2023-04-03T01:58:30;37.05;34.25;46.47;;
69670;Laerm;66535;52.370;4.832;2023-04-03T01:59:02;37.70;34.49;44.40;;
69670;Laerm;66535;52.370;4.832;2023-04-03T01:59:34;37.86;34.39;46.82;;
69670;Laerm;66535;52.370;4.832;2023-04-03T02:00:06;38.02;34.73;45.90;;
69670;Laerm;66535;52.370;4.832;2023-04-03T02:00:38;39.22;34.92;50.66;;
69670;Laerm;66535;52.370;4.832;2023-04-03T02:01:09;38.62;35.11;45.91;;
69670;Laerm;66535;52.370;4.832;2023-04-03T02:01:41;39.39;36.16;50.49;;
69670;Laerm;66535;52.370;4.832;2023-04-03T02:02:15;38.35;35.78;44.19;;
69670;Laerm;66535;52.370;4.832;2023-04-03T02:02:46;39.52;36.02;45.30;;
69670;Laerm;66535;52.370;4.832;2023-04-03T02:03:18;38.97;36.17;47.81;;
69670;Laerm;66535;52.370;4.832;2023-04-03T02:03:50;38.85;36.08;46.60;;
69670;Laerm;66535;52.370;4.832;2023-04-03T02:04:22;39.80;36.75;47.70;;
69670;Laerm;66535;52.370;4.832;2023-04-03T02:04:53;47.57;37.61;60.74;;
69670;Laerm;66535;52.370;4.832;2023-04-03T02:05:26;40.32;37.45;44.23;;
69670;Laerm;66535;52.370;4.832;2023-04-03T02:05:57;41.13;37.75;48.01;;
69670;Laerm;66535;52.370;4.832;2023-04-03T02:06:28;44.19;37.84;55.97;;
69670;Laerm;66535;52.370;4.832;2023-04-03T02:07:00;41.24;38.21;50.72;;
69670;Laerm;66535;52.370;4.832;2023-04-03T02:07:32;40.45;37.54;45.41;;
69670;Laerm;66535;52.370;4.832;2023-04-03T02:08:03;39.19;37.04;42.71;;
69670;Laerm;66535;52.370;4.832;2023-04-03T02:08:36;39.74;36.81;49.88;;
69670;Laerm;66535;52.370;4.832;2023-04-03T02:09:07;40.12;37.09;47.74;;
69670;Laerm;66535;52.370;4.832;2023-04-03T02:09:39;39.45;36.97;43.84;;
69670;Laerm;66535;52.370;4.832;2023-04-03T02:10:11;42.41;37.46;51.60;;
69670;Laerm;66535;52.370;4.832;2023-04-03T02:10:43;41.88;38.68;47.78;;
69670;Laerm;66535;52.370;4.832;2023-04-03T02:11:14;40.05;36.45;46.48;;
69670;Laerm;66535;52.370;4.832;2023-04-03T02:11:46;38.79;36.24;45.28;;
69670;Laerm;66535;52.370;4.832;2023-04-03T02:12:18;39.64;36.04;51.88;;
69670;Laerm;66535;52.370;4.832;2023-04-03T02:12:49;38.49;35.87;45.43;;
69670;Laerm;66535;52.370;4.832;2023-04-03T02:13:21;47.75;36.44;59.21;;
69670;Laerm;66535;52.370;4.832;2023-04-03T02:13:52;47.34;37.86;58.76;;
69670;Laerm;66535;52.370;4.832;2023-04-03T02:14:25;41.93;37.35;50.92;;
69670;Laerm;66535;52.370;4.832;2023-04-03T02:14:58;42.83;38.91;57.55;;
69670;Laerm;66535;52.370;4.832;2023-04-03T02:15:29;40.23;38.25;49.11;;
69670;Laerm;66535;52.370;4.832;2023-04-03T02:16:06;40.21;37.87;43.97;;
69670;Laerm;66535;52.370;4.832;2023-04-03T02:16:37;40.46;37.99;48.77;;
69670;Laerm;66535;52.370;4.832;2023-04-03T02:17:10;41.28;38.53;48.13;;
69670;Laerm;66535;52.370;4.832;2023-04-03T02:17:42;44.42;40.52;51.26;;
69670;Laerm;66535;52.370;4.832;2023-04-03T02:18:14;43.85;40.17;51.39;;
69670;Laerm;66535;52.370;4.832;2023-04-03T02:18:46;40.12;37.96;45.02;;
69670;Laerm;66535;52.370;4.832;2023-04-03T02:19:18;43.65;38.63;50.85;;
69670;Laerm;66535;52.370;4.832;2023-04-03T02:19:49;40.56;38.32;47.44;;
69670;Laerm;66535;52.370;4.832;2023-04-03T02:20:21;43.11;39.63;49.52;;
69670;Laerm;66535;52.370;4.832;2023-04-03T02:20:52;45.64;43.86;50.64;;
69670;Laerm;66535;52.370;4.832;2023-04-03T02:21:24;43.80;42.19;46.36;;
69670;Laerm;66535;52.370;4.832;2023-04-03T02:21:56;42.51;40.32;46.38;;
69670;Laerm;66535;52.370;4.832;2023-04-03T02:22:27;41.78;39.71;50.32;;
69670;Laerm;66535;52.370;4.832;2023-04-03T02:22:58;46.51;41.95;51.45;;
69670;Laerm;66535;52.370;4.832;2023-04-03T02:23:31;50.30;47.39;63.33;;
69670;Laerm;66535;52.370;4.832;2023-04-03T02:24:02;53.84;51.05;65.48;;
69670;Laerm;66535;52.370;4.832;2023-04-03T02:24:33;50.74;44.64;55.78;;
69670;Laerm;66535;52.370;4.832;2023-04-03T02:25:06;48.30;45.70;52.15;;
69670;Laerm;66535;52.370;4.832;2023-04-03T02:25:37;53.02;48.19;56.09;;
69670;Laerm;66535;52.370;4.832;2023-04-03T02:26:10;56.34;54.74;57.85;;
69670;Laerm;66535;52.370;4.832;2023-04-03T02:26:43;55.85;53.98;58.41;;
69670;Laerm;66535;52.370;4.832;2023-04-03T02:27:14;54.67;53.39;56.11;;
69670;Laerm;66535;52.370;4.832;2023-04-03T02:27:46;54.45;52.87;55.66;;
69670;Laerm;66535;52.370;4.832;2023-04-03T02:28:18;53.39;51.14;57.04;;
69670;Laerm;66535;52.370;4.832;2023-04-03T02:28:49;52.46;50.12;55.58;;
69670;Laerm;66535;52.370;4.832;2023-04-03T02:29:21;53.13;50.70;57.14;;
69670;Laerm;66535;52.370;4.832;2023-04-03T02:29:53;52.83;50.48;54.97;;
69670;Laerm;66535;52.370;4.832;2023-04-03T02:30:24;53.53;28.53;63.58;;
69670;Laerm;66535;52.370;4.832;2023-04-03T02:30:56;53.99;51.58;56.24;;
69670;Laerm;66535;52.370;4.832;2023-04-03T02:31:28;53.93;51.77;55.64;;
69670;Laerm;66535;52.370;4.832;2023-04-03T02:31:59;53.80;51.83;55.41;;
69670;Laerm;66535;52.370;4.832;2023-04-03T02:32:31;54.73;52.58;56.37;;
69670;Laerm;66535;52.370;4.832;2023-04-03T02:33:05;54.61;53.13;55.82;;
69670;Laerm;66535;52.370;4.832;2023-04-03T02:33:36;54.79;52.84;65.80;;
69670;Laerm;66535;52.370;4.832;2023-04-03T02:34:08;53.70;51.37;67.02;;
69670;Laerm;66535;52.370;4.832;2023-04-03T02:34:40;53.68;47.42;61.39;;
69670;Laerm;66535;52.370;4.832;2023-04-03T02:35:11;53.05;37.41;61.87;;
69670;Laerm;66535;52.370;4.832;2023-04-03T02:35:43;52.64;50.07;63.07;;
69670;Laerm;66535;52.370;4.832;2023-04-03T02:36:17;52.43;45.38;63.47;;
69670;Laerm;66535;52.370;4.832;2023-04-03T02:36:48;54.37;45.52;68.56;;
69670;Laerm;66535;52.370;4.832;2023-04-03T02:37:19;80.23;-257.33;99.19;;
69670;Laerm;66535;52.370;4.832;2023-04-03T02:37:52;79.05;-323.53;99.17;;
69670;Laerm;66535;52.370;4.832;2023-04-03T02:38:23;82.97;-325.88;99.23;;
69670;Laerm;66535;52.370;4.832;2023-04-03T02:38:54;78.75;-323.53;99.23;;
69670;Laerm;66535;52.370;4.832;2023-04-03T02:39:27;81.84;-327.34;99.23;;
69670;Laerm;66535;52.370;4.832;2023-04-03T02:39:58;71.35;-14.54;99.16;;
69670;Laerm;66535;52.370;4.832;2023-04-03T02:40:29;53.43;18.28;64.65;;
69670;Laerm;66535;52.370;4.832;2023-04-03T02:41:02;76.33;-105.20;99.11;;
69670;Laerm;66535;52.370;4.832;2023-04-03T02:41:33;53.22;50.10;63.04;;
69670;Laerm;66535;52.370;4.832;2023-04-03T02:42:06;52.83;48.89;61.49;;
69670;Laerm;66535;52.370;4.832;2023-04-03T02:42:39;52.24;37.00;63.07;;
69670;Laerm;66535;52.370;4.832;2023-04-03T02:43:10;52.26;46.94;61.00;;
69670;Laerm;66535;52.370;4.832;2023-04-03T02:43:41;71.47;-334.33;96.17;;
69670;Laerm;66535;52.370;4.832;2023-04-03T02:44:13;77.27;-329.56;96.31;;
69670;Laerm;66535;52.370;4.832;2023-04-03T02:44:45;41.58;35.59;55.05;;
69670;Laerm;66535;52.370;4.832;2023-04-03T02:45:17;40.86;35.18;52.54;;
69670;Laerm;66535;52.370;4.832;2023-04-03T02:45:48;42.90;36.44;53.10;;
69670;Laerm;66535;52.370;4.832;2023-04-03T02:46:20;40.00;35.66;54.82;;
69670;Laerm;66535;52.370;4.832;2023-04-03T02:46:51;42.00;35.35;55.51;;
69670;Laerm;66535;52.370;4.832;2023-04-03T02:47:23;39.17;34.80;52.74;;
69670;Laerm;66535;52.370;4.832;2023-04-03T02:47:55;40.67;34.98;51.34;;
69670;Laerm;66535;52.370;4.832;2023-04-03T02:48:28;41.56;34.77;54.01;;
69670;Laerm;66535;52.370;4.832;2023-04-03T02:48:59;38.14;34.40;48.93;;
69670;Laerm;66535;52.370;4.832;2023-04-03T02:49:31;41.12;35.94;52.07;;
69670;Laerm;66535;52.370;4.832;2023-04-03T02:50:03;41.98;35.18;49.11;;
69670;Laerm;66535;52.370;4.832;2023-04-03T02:50:35;39.73;35.98;48.00;;
69670;Laerm;66535;52.370;4.832;2023-04-03T02:51:06;40.75;35.81;51.29;;
69670;Laerm;66535;52.370;4.832;2023-04-03T02:51:38;42.19;36.59;53.62;;
69670;Laerm;66535;52.370;4.832;2023-04-03T02:52:10;41.95;36.36;57.48;;
69670;Laerm;66535;52.370;4.832;2023-04-03T02:52:41;40.68;36.14;63.78;;
69670;Laerm;66535;52.370;4.832;2023-04-03T02:53:12;39.59;35.86;50.61;;
69670;Laerm;66535;52.370;4.832;2023-04-03T02:53:44;41.66;36.64;55.42;;
69670;Laerm;66535;52.370;4.832;2023-04-03T02:54:16;44.03;38.54;50.07;;
69670;Laerm;66535;52.370;4.832;2023-04-03T02:54:47;44.01;37.04;56.97;;
69670;Laerm;66535;52.370;4.832;2023-04-03T02:55:18;39.71;36.00;50.29;;
69670;Laerm;66535;52.370;4.832;2023-04-03T02:55:50;40.31;35.77;57.06;;
69670;Laerm;66535;52.370;4.832;2023-04-03T02:56:22;38.86;36.29;47.93;;
69670;Laerm;66535;52.370;4.832;2023-04-03T02:56:53;41.52;35.71;56.18;;
69670;Laerm;66535;52.370;4.832;2023-04-03T02:57:25;41.26;35.68;49.87;;
69670;Laerm;66535;52.370;4.832;2023-04-03T02:57:56;40.53;36.58;49.95;;
69670;Laerm;66535;52.370;4.832;2023-04-03T02:58:28;39.37;35.53;48.78;;
69670;Laerm;66535;52.370;4.832;2023-04-03T02:59:00;40.10;36.02;52.17;;
69670;Laerm;66535;52.370;4.832;2023-04-03T02:59:31;40.33;36.22;50.04;;
69670;Laerm;66535;52.370;4.832;2023-04-03T03:00:03;40.99;36.51;53.46;;
69670;Laerm;66535;52.370;4.832;2023-04-03T03:00:35;41.50;36.40;58.33;;
69670;Laerm;66535;52.370;4.832;2023-04-03T03:01:06;40.08;36.53;48.66;;
69670;Laerm;66535;52.370;4.832;2023-04-03T03:01:38;41.19;36.52;52.87;;
69670;Laerm;66535;52.370;4.832;2023-04-03T03:02:10;42.04;36.22;54.91;;
69670;Laerm;66535;52.370;4.832;2023-04-03T03:02:41;40.44;36.51;55.08;;
69670;Laerm;66535;52.370;4.832;2023-04-03T03:03:13;40.64;37.36;47.40;;
69670;Laerm;66535;52.370;4.832;2023-04-03T03:03:47;40.15;35.93;53.76;;